createdAt,value
2018-10-16T00:02:14.127Z,62.50
2018-10-16T00:04:44.104Z,61.70
2018-10-16T00:07:14.147Z,63.20
2018-10-16T00:09:44.147Z,61.02
2018-10-16T00:12:14.140Z,59.88
2018-10-16T00:14:44.171Z,60.45
2018-10-16T00:17:14.173Z,59.98
2018-10-16T00:19:44.199Z,59.58
2018-10-16T00:22:14.236Z,60.43
2018-10-16T00:24:44.371Z,58.20
2018-10-16T00:27:14.344Z,59.03
2018-10-16T00:29:44.369Z,60.15
2018-10-16T00:32:14.278Z,55.83
2018-10-16T00:34:44.231Z,54.35
2018-10-16T00:37:14.299Z,56.83
2018-10-16T00:39:44.327Z,55.45
2018-10-16T00:42:14.441Z,55.70
2018-10-16T00:44:44.378Z,54.55
2018-10-16T00:47:14.376Z,54.23
2018-10-16T00:49:44.675Z,52.95
2018-10-16T00:52:14.915Z,52.73
2018-10-16T00:54:44.941Z,52.00
2018-10-16T00:57:14.931Z,51.08
2018-10-16T00:59:44.947Z,52.25
2018-10-16T01:02:15.063Z,50.23
2018-10-16T01:04:45.113Z,49.88
2018-10-16T01:07:15.095Z,51.08
2018-10-16T01:09:45.148Z,49.95
2018-10-16T01:12:15.119Z,49.67
2018-10-16T01:14:45.231Z,48.70
2018-10-16T01:17:15.166Z,48.80
2018-10-16T01:19:45.171Z,48.13
2018-10-16T01:22:15.422Z,48.28
2018-10-16T01:24:45.405Z,46.50
2018-10-16T01:27:15.351Z,45.78
2018-10-16T01:29:45.871Z,47.30
2018-10-16T01:32:15.757Z,48.00
2018-10-16T01:34:45.779Z,47.17
2018-10-16T01:37:15.689Z,45.58
2018-10-16T01:39:45.712Z,46.70
2018-10-16T01:42:15.715Z,45.38
2018-10-16T01:44:45.783Z,45.45
2018-10-16T01:47:15.864Z,45.75
2018-10-16T01:49:45.784Z,43.10
2018-10-16T01:52:15.808Z,42.60
2018-10-16T01:54:45.691Z,42.83
2018-10-16T01:57:16.119Z,42.13
2018-10-16T01:59:46.059Z,41.92
2018-10-16T02:02:15.830Z,40.65
2018-10-16T02:04:45.596Z,40.15
2018-10-16T02:07:15.321Z,42.88
2018-10-16T02:09:44.966Z,40.83
2018-10-16T02:12:14.574Z,39.20
2018-10-16T02:14:45.027Z,39.48
2018-10-16T02:17:14.643Z,40.88
2018-10-16T02:19:44.397Z,40.10
2018-10-16T02:22:14.018Z,39.40
2018-10-16T02:24:43.690Z,36.98
2018-10-16T02:27:13.362Z,39.35
2018-10-16T02:29:43.038Z,39.15
2018-10-16T02:32:13.640Z,37.98
2018-10-16T02:34:43.707Z,36.80
2018-10-16T02:37:13.750Z,37.33
2018-10-16T02:39:43.603Z,36.33
2018-10-16T02:42:13.842Z,37.55
2018-10-16T02:44:43.847Z,35.55
2018-10-16T02:47:13.787Z,37.45
2018-10-16T02:49:43.776Z,33.67
2018-10-16T02:52:13.821Z,36.55
2018-10-16T02:54:43.803Z,35.90
2018-10-16T02:57:13.751Z,34.90
2018-10-16T02:59:43.776Z,33.78
2018-10-16T03:02:13.767Z,31.97
2018-10-16T03:04:43.779Z,35.03
2018-10-16T03:07:13.779Z,46.02
2018-10-16T03:09:43.799Z,49.95
2018-10-16T03:12:13.461Z,40.85
2018-10-16T03:14:43.170Z,44.03
2018-10-16T03:17:12.846Z,43.60
2018-10-16T03:19:42.561Z,40.85
2018-10-16T03:22:12.286Z,48.98
2018-10-16T03:24:41.984Z,44.15
2018-10-16T03:27:11.684Z,43.90
2018-10-16T03:29:41.290Z,46.05
2018-10-16T03:32:10.995Z,42.15
2018-10-16T03:34:40.566Z,41.37
2018-10-16T03:37:10.219Z,42.58
2018-10-16T03:39:39.785Z,41.02
2018-10-16T03:42:09.390Z,40.88
2018-10-16T03:44:39.065Z,40.12
2018-10-16T03:47:08.638Z,39.95
2018-10-16T03:49:38.206Z,38.73
2018-10-16T03:52:07.814Z,39.55
2018-10-16T03:54:37.450Z,39.78
2018-10-16T03:57:07.336Z,39.13
2018-10-16T03:59:36.978Z,37.17
2018-10-16T04:02:06.654Z,39.48
2018-10-16T04:04:36.389Z,39.58
2018-10-16T04:07:06.540Z,36.05
2018-10-16T04:09:36.321Z,36.73
2018-10-16T04:12:06.122Z,36.50
2018-10-16T04:14:35.842Z,35.80
2018-10-16T04:17:05.718Z,35.10
2018-10-16T04:19:35.518Z,34.70
2018-10-16T04:22:05.146Z,35.95
2018-10-16T04:24:34.906Z,34.27
2018-10-16T04:27:04.561Z,35.88
2018-10-16T04:29:34.605Z,34.03
2018-10-16T04:32:04.183Z,33.30
2018-10-16T04:34:34.543Z,34.15
2018-10-16T04:37:04.613Z,33.75
2018-10-16T04:39:34.299Z,31.90
2018-10-16T04:42:04.062Z,32.85
2018-10-16T04:44:34.246Z,31.73
2018-10-16T04:47:04.030Z,31.93
2018-10-16T04:49:33.778Z,32.15
2018-10-16T04:52:04.022Z,30.82
2018-10-16T04:54:33.768Z,31.80
2018-10-16T04:57:03.477Z,31.37
2018-10-16T04:59:33.157Z,31.15
2018-10-16T05:02:03.182Z,30.45
2018-10-16T05:04:33.155Z,28.83
2018-10-16T05:07:02.866Z,29.30
2018-10-16T05:09:32.495Z,30.82
2018-10-16T05:12:02.258Z,29.77
2018-10-16T05:14:31.955Z,27.50
2018-10-16T05:17:01.626Z,27.82
2018-10-16T05:19:31.416Z,28.98
2018-10-16T05:22:01.039Z,34.43
2018-10-16T05:24:30.709Z,32.90
2018-10-16T05:27:00.290Z,34.43
2018-10-16T05:29:29.954Z,53.45
2018-10-16T05:31:59.648Z,49.65
2018-10-16T05:34:29.414Z,58.38
2018-10-16T05:36:59.058Z,54.00
2018-10-16T05:39:28.725Z,38.42
2018-10-16T05:41:58.438Z,37.85
2018-10-16T05:44:28.113Z,42.08
2018-10-16T05:46:57.851Z,47.00
2018-10-16T05:49:27.454Z,45.75
2018-10-16T05:51:57.274Z,44.00
2018-10-16T05:54:27.035Z,44.08
2018-10-16T05:56:56.690Z,47.65
2018-10-16T05:59:26.257Z,42.40
2018-10-16T06:01:55.962Z,42.27
2018-10-16T06:04:25.705Z,59.95
2018-10-16T06:06:55.763Z,52.17
2018-10-16T06:09:25.681Z,55.67
2018-10-16T06:11:55.886Z,47.08
2018-10-16T06:14:25.674Z,44.63
2018-10-16T06:16:55.303Z,46.98
2018-10-16T06:19:24.973Z,45.48
2018-10-16T06:21:54.651Z,44.88
2018-10-16T06:24:24.320Z,42.95
2018-10-16T06:26:54.103Z,44.70
2018-10-16T06:29:23.774Z,43.78
2018-10-16T06:31:53.750Z,42.95
2018-10-16T06:34:23.435Z,42.00
2018-10-16T06:36:53.142Z,41.77
2018-10-16T06:39:22.738Z,42.08
2018-10-16T06:41:52.729Z,40.70
2018-10-16T06:44:22.466Z,39.40
2018-10-16T06:46:52.174Z,40.03
2018-10-16T06:49:21.811Z,40.20
2018-10-16T06:51:51.489Z,40.60
2018-10-16T06:54:21.193Z,39.55
2018-10-16T06:56:50.946Z,39.90
2018-10-16T06:59:20.621Z,38.67
2018-10-16T07:01:50.314Z,36.98
2018-10-16T07:04:19.934Z,39.78
2018-10-16T07:06:49.658Z,38.17
2018-10-16T07:09:19.582Z,37.60
2018-10-16T07:11:49.357Z,37.75
2018-10-16T07:14:19.106Z,36.53
2018-10-16T07:16:48.858Z,37.63
2018-10-16T07:19:18.550Z,35.50
2018-10-16T07:21:48.646Z,33.95
2018-10-16T07:24:18.314Z,34.67
2018-10-16T07:26:48.301Z,34.85
2018-10-16T07:29:18.101Z,35.08
2018-10-16T07:31:47.822Z,35.20
2018-10-16T07:34:17.550Z,35.73
2018-10-16T07:36:47.218Z,35.68
2018-10-16T07:39:17.307Z,34.90
2018-10-16T07:41:46.990Z,34.80
2018-10-16T07:44:16.744Z,33.05
2018-10-16T07:46:46.422Z,34.58
2018-10-16T07:49:16.122Z,33.23
2018-10-16T07:51:45.778Z,33.33
2018-10-16T07:54:15.620Z,32.10
2018-10-16T07:56:45.574Z,32.75
2018-10-16T07:59:15.262Z,33.05
2018-10-16T08:01:45.211Z,32.93
2018-10-16T08:04:15.067Z,31.10
2018-10-16T08:06:44.774Z,31.93
2018-10-16T08:09:15.747Z,30.85
2018-10-16T08:11:47.702Z,32.53
2018-10-16T08:14:18.293Z,33.90
2018-10-16T08:16:49.371Z,33.78
2018-10-16T08:19:19.302Z,33.98
2018-10-16T08:21:48.929Z,37.15
2018-10-16T08:24:18.916Z,35.55
2018-10-16T08:26:48.636Z,34.63
2018-10-16T08:29:18.262Z,33.38
2018-10-16T08:31:47.999Z,32.28
2018-10-16T08:34:17.962Z,35.52
2018-10-16T08:36:48.528Z,33.33
2018-10-16T08:39:21.318Z,33.20
2018-10-16T08:42:34.994Z,33.05
2018-10-16T08:45:16.698Z,31.50
2018-10-16T08:47:58.134Z,31.82
2018-10-16T08:50:40.058Z,35.50
2018-10-16T08:53:09.702Z,31.33
2018-10-16T08:55:39.439Z,32.45
2018-10-16T08:58:09.134Z,31.60
2018-10-16T09:00:40.171Z,32.25
2018-10-16T09:03:10.003Z,33.35
2018-10-16T09:05:39.593Z,34.03
2018-10-16T09:08:09.302Z,33.83
2018-10-16T09:10:39.050Z,33.70
2018-10-16T09:13:08.788Z,32.90
2018-10-16T09:15:38.307Z,32.60
2018-10-16T09:18:08.026Z,34.98
2018-10-16T09:20:37.797Z,34.98
2018-10-16T09:23:07.511Z,36.33
2018-10-16T09:25:37.295Z,35.68
2018-10-16T09:28:07.058Z,38.00
2018-10-16T09:30:36.782Z,35.78
2018-10-16T09:33:06.618Z,36.28
2018-10-16T09:35:36.294Z,31.20
2018-10-16T09:38:06.443Z,29.05
2018-10-16T09:40:36.076Z,27.15
2018-10-16T09:43:05.998Z,26.75
2018-10-16T09:45:35.632Z,29.07
2018-10-16T09:48:05.886Z,29.07
2018-10-16T09:50:35.558Z,43.73
2018-10-16T09:53:05.814Z,33.63
2018-10-16T09:55:35.486Z,33.55
2018-10-16T09:58:05.537Z,28.57
2018-10-16T10:00:40.437Z,31.95
2018-10-16T10:03:10.142Z,31.35
2018-10-16T10:05:39.734Z,28.62
2018-10-16T10:08:09.723Z,31.93
2018-10-16T10:10:39.560Z,31.25
2018-10-16T10:13:09.614Z,31.25
2018-10-16T10:15:39.849Z,33.90
2018-10-16T10:18:09.525Z,30.15
2018-10-16T10:20:39.643Z,32.40
2018-10-16T10:23:09.400Z,32.42
2018-10-16T10:25:39.035Z,36.68
2018-10-16T10:28:09.034Z,41.10
2018-10-16T10:30:38.977Z,43.33
2018-10-16T10:33:08.666Z,45.85
2018-10-16T10:35:38.499Z,47.08
2018-10-16T10:38:08.493Z,45.03
2018-10-16T10:40:38.741Z,47.38
2018-10-16T10:43:08.315Z,53.70
2018-10-16T10:45:38.070Z,55.28
2018-10-16T10:48:07.765Z,55.63
2018-10-16T10:50:37.709Z,55.17
2018-10-16T10:53:07.570Z,56.37
2018-10-16T10:55:37.658Z,56.20
2018-10-16T10:58:09.934Z,51.85
2018-10-16T11:00:40.070Z,49.73
2018-10-16T11:03:10.491Z,52.38
2018-10-16T11:05:40.187Z,48.73
2018-10-16T11:08:09.862Z,47.80
2018-10-16T11:10:39.929Z,45.38
2018-10-16T11:13:09.608Z,46.28
2018-10-16T11:15:39.419Z,41.85
2018-10-16T11:18:09.348Z,45.08
2018-10-16T11:20:39.143Z,42.17
2018-10-16T11:23:09.638Z,40.23
2018-10-16T11:25:39.346Z,38.67
2018-10-16T11:28:09.998Z,35.38
2018-10-16T11:30:39.909Z,33.88
2018-10-16T11:33:09.599Z,35.05
2018-10-16T11:35:39.114Z,35.17
2018-10-16T11:38:08.886Z,35.17
2018-10-16T11:40:38.615Z,31.25
2018-10-16T11:43:08.326Z,32.30
2018-10-16T11:45:37.968Z,32.35
2018-10-16T11:48:07.637Z,30.77
2018-10-16T11:50:37.367Z,28.95
2018-10-16T11:53:06.880Z,32.38
2018-10-16T11:55:36.441Z,28.98
2018-10-16T11:58:06.098Z,31.10
2018-10-16T12:00:35.811Z,28.57
2018-10-16T12:03:05.458Z,28.57
2018-10-16T12:05:35.422Z,29.50
2018-10-16T12:08:05.230Z,28.00
2018-10-16T12:10:34.981Z,26.57
2018-10-16T12:13:05.173Z,27.07
2018-10-16T12:15:34.875Z,26.65
2018-10-16T12:18:11.747Z,30.37
2018-10-16T12:20:44.924Z,29.30
2018-10-16T12:23:14.686Z,28.50
2018-10-16T12:25:44.755Z,29.40
2018-10-16T12:28:14.394Z,29.72
2018-10-16T12:30:44.511Z,30.27
2018-10-16T12:33:14.257Z,30.75
2018-10-16T12:35:44.046Z,29.85
2018-10-16T12:38:14.029Z,32.30
2018-10-16T12:40:43.785Z,26.68
2018-10-16T12:43:13.512Z,27.98
2018-10-16T12:45:43.074Z,27.82
2018-10-16T12:48:12.795Z,26.42
2018-10-16T12:50:42.653Z,24.47
2018-10-16T12:53:12.394Z,27.62
2018-10-16T12:55:41.946Z,29.45
2018-10-16T12:58:11.666Z,32.00
2018-10-16T13:00:41.343Z,32.75
2018-10-16T13:03:11.063Z,31.23
2018-10-16T13:05:40.650Z,29.92
2018-10-16T13:08:10.524Z,29.45
2018-10-16T13:10:40.098Z,28.85
2018-10-16T13:13:09.867Z,29.52
2018-10-16T13:15:39.536Z,28.23
2018-10-16T13:18:09.275Z,30.17
2018-10-16T13:20:39.414Z,29.37
2018-10-16T13:23:09.567Z,29.67
2018-10-16T13:25:39.470Z,25.62
2018-10-16T13:28:09.263Z,32.63
2018-10-16T13:30:39.466Z,28.38
2018-10-16T13:33:08.962Z,24.55
2018-10-16T13:35:38.984Z,23.80
2018-10-16T13:38:08.770Z,33.35
2018-10-16T13:40:38.518Z,29.27
2018-10-16T13:43:08.366Z,26.45
2018-10-16T13:45:38.079Z,24.85
2018-10-16T13:48:07.742Z,23.62
2018-10-16T13:50:37.510Z,21.23
2018-10-16T13:53:07.387Z,23.00
2018-10-16T13:55:37.005Z,19.95
2018-10-16T13:58:06.919Z,22.45
2018-10-16T14:00:36.466Z,18.45
2018-10-16T14:03:06.250Z,18.82
2018-10-16T14:05:36.042Z,19.02
2018-10-16T14:08:05.874Z,18.73
2018-10-16T14:10:35.750Z,53.33
2018-10-16T14:13:06.138Z,46.15
2018-10-16T14:15:35.935Z,40.40
2018-10-16T14:18:06.174Z,44.50
2018-10-16T14:20:35.958Z,49.38
2018-10-16T14:23:05.683Z,36.83
2018-10-16T14:25:35.357Z,37.93
2018-10-16T14:28:05.380Z,32.88
2018-10-16T14:30:35.058Z,30.75
2018-10-16T14:33:10.499Z,28.65
2018-10-16T14:35:40.450Z,30.72
2018-10-16T14:38:10.629Z,28.32
2018-10-16T14:40:40.372Z,22.70
2018-10-16T14:43:10.054Z,22.82
2018-10-16T14:45:39.703Z,22.10
2018-10-16T14:48:10.105Z,22.00
2018-10-16T14:50:39.753Z,22.20
2018-10-16T14:53:09.570Z,25.30
2018-10-16T14:55:39.338Z,21.57
2018-10-16T14:58:09.406Z,23.25
2018-10-16T15:00:40.908Z,25.25
2018-10-16T15:03:10.823Z,22.80
2018-10-16T15:05:40.810Z,24.57
2018-10-16T15:08:10.610Z,23.67
2018-10-16T15:10:40.650Z,25.05
2018-10-16T15:13:10.725Z,23.83
2018-10-16T15:15:40.470Z,25.43
2018-10-16T15:18:10.213Z,25.45
2018-10-16T15:20:40.223Z,25.30
2018-10-16T15:23:10.090Z,25.32
2018-10-16T15:25:41.617Z,27.45
2018-10-16T15:28:11.879Z,23.02
2018-10-16T15:30:42.154Z,21.60
2018-10-16T15:33:11.933Z,21.62
2018-10-16T15:35:41.728Z,23.20
2018-10-16T15:38:11.500Z,22.22
2018-10-16T15:40:41.010Z,20.55
2018-10-16T15:43:10.786Z,21.73
2018-10-16T15:45:40.527Z,21.87
2018-10-16T15:48:10.299Z,21.82
2018-10-16T15:50:40.272Z,22.75
2018-10-16T15:53:09.998Z,22.77
2018-10-16T15:55:39.774Z,23.62
2018-10-16T15:58:10.087Z,23.95
2018-10-16T16:00:40.490Z,26.20
2018-10-16T16:03:09.971Z,30.45
2018-10-16T16:05:40.028Z,32.23
2018-10-16T16:08:10.189Z,30.27
2018-10-16T16:10:40.042Z,28.30
2018-10-16T16:13:10.753Z,28.02
2018-10-16T16:15:40.810Z,25.97
2018-10-16T16:18:10.815Z,28.30
2018-10-16T16:20:40.371Z,26.95
2018-10-16T16:23:10.718Z,27.95
2018-10-16T16:25:40.765Z,28.87
2018-10-16T16:28:10.886Z,30.23
2018-10-16T16:30:40.562Z,45.85
2018-10-16T16:33:10.277Z,38.10
2018-10-16T16:35:40.293Z,35.65
2018-10-16T16:38:10.430Z,32.73
2018-10-16T16:40:40.373Z,32.25
2018-10-16T16:43:10.508Z,48.52
2018-10-16T16:45:40.202Z,50.83
2018-10-16T16:48:10.158Z,51.55
2018-10-16T16:50:40.407Z,51.02
2018-10-16T16:53:10.514Z,39.00
2018-10-16T16:55:40.142Z,42.48
2018-10-16T16:58:09.997Z,40.85
2018-10-16T17:00:39.810Z,39.67
2018-10-16T17:03:10.437Z,39.23
2018-10-16T17:05:40.172Z,39.85
2018-10-16T17:08:09.966Z,38.88
2018-10-16T17:10:39.551Z,45.00
2018-10-16T17:13:09.298Z,50.92
2018-10-16T17:15:39.025Z,46.75
2018-10-16T17:18:08.685Z,37.35
2018-10-16T17:20:38.413Z,46.13
2018-10-16T17:23:08.194Z,54.38
2018-10-16T17:25:38.213Z,64.80
2018-10-16T17:28:07.999Z,78.55
2018-10-16T17:30:37.613Z,73.47
2018-10-16T17:33:07.991Z,85.55
2018-10-16T17:35:37.597Z,67.92
2018-10-16T17:38:07.179Z,66.70
2018-10-16T17:40:37.010Z,57.93
2018-10-16T17:43:06.890Z,56.10
2018-10-16T17:45:36.634Z,55.17
2018-10-16T17:48:06.451Z,43.70
2018-10-16T17:50:36.187Z,44.98
2018-10-16T17:53:05.837Z,49.85
2018-10-16T17:55:35.796Z,47.98
2018-10-16T17:58:05.710Z,39.65
2018-10-16T18:00:35.604Z,37.73
2018-10-16T18:03:05.094Z,41.88
2018-10-16T18:05:34.457Z,41.18
2018-10-16T18:08:04.072Z,40.78
2018-10-16T18:10:33.776Z,38.88
2018-10-16T18:13:03.479Z,38.78
2018-10-16T18:15:33.150Z,40.20
2018-10-16T18:18:03.147Z,40.38
2018-10-16T18:20:32.822Z,48.02
2018-10-16T18:23:02.552Z,47.23
2018-10-16T18:25:32.277Z,41.80
2018-10-16T18:28:01.962Z,41.35
2018-10-16T18:30:32.143Z,39.67
2018-10-16T18:33:02.251Z,42.98
2018-10-16T18:35:32.085Z,41.90
2018-10-16T18:38:01.768Z,37.73
2018-10-16T18:40:31.455Z,41.68
2018-10-16T18:43:02.006Z,43.35
2018-10-16T18:45:31.766Z,41.10
2018-10-16T18:48:01.751Z,39.20
2018-10-16T18:50:32.731Z,40.83
2018-10-16T18:53:02.679Z,46.20
2018-10-16T18:55:32.187Z,39.08
2018-10-16T18:58:02.699Z,37.65
2018-10-16T19:00:33.098Z,38.35
2018-10-16T19:03:03.310Z,38.67
2018-10-16T19:05:33.326Z,38.55
2018-10-16T19:08:03.524Z,38.10
2018-10-16T19:10:33.130Z,38.30
2018-10-16T19:13:03.531Z,36.33
2018-10-16T19:15:33.384Z,39.53
2018-10-16T19:18:03.042Z,42.85
2018-10-16T19:20:33.779Z,44.85
2018-10-16T19:23:03.446Z,41.88
2018-10-16T19:25:33.539Z,41.05
2018-10-16T19:28:03.315Z,45.58
2018-10-16T19:30:33.035Z,42.05
2018-10-16T19:33:02.636Z,46.05
2018-10-16T19:35:33.565Z,45.00
2018-10-16T19:38:03.082Z,46.05
2018-10-16T19:40:33.050Z,47.78
2018-10-16T19:43:02.794Z,44.05
2018-10-16T19:45:32.590Z,45.40
2018-10-16T19:48:02.227Z,47.78
2018-10-16T19:50:32.014Z,48.40
2018-10-16T19:53:01.904Z,54.15
2018-10-16T19:55:31.952Z,61.68
2018-10-16T19:58:01.582Z,54.90
2018-10-16T20:00:31.290Z,51.83
2018-10-16T20:03:01.502Z,52.55
2018-10-16T20:05:31.616Z,52.80
2018-10-16T20:08:01.634Z,54.13
2018-10-16T20:10:31.461Z,54.77
2018-10-16T20:13:01.150Z,55.95
2018-10-16T20:15:30.902Z,57.90
2018-10-16T20:18:00.650Z,57.60
2018-10-16T20:20:30.364Z,56.55
2018-10-16T20:23:00.270Z,56.70
2018-10-16T20:25:30.794Z,56.35
2018-10-16T20:28:01.412Z,59.27
2018-10-16T20:30:31.490Z,58.98
2018-10-16T20:33:01.486Z,58.10
2018-10-16T20:35:31.371Z,61.23
2018-10-16T20:38:01.156Z,64.37
2018-10-16T20:40:30.815Z,64.75
2018-10-16T20:43:00.648Z,79.40
2018-10-16T20:45:30.363Z,74.65
2018-10-16T20:48:00.082Z,68.85
2018-10-16T20:50:29.763Z,79.72
2018-10-16T20:52:59.663Z,64.47
2018-10-16T20:55:29.333Z,68.55
2018-10-16T20:57:59.043Z,76.00
2018-10-16T21:00:29.021Z,68.85
2018-10-16T21:02:58.658Z,78.97
2018-10-16T21:05:28.476Z,72.70
2018-10-16T21:07:58.182Z,74.40
2018-10-16T21:10:28.015Z,80.25
2018-10-16T21:12:58.011Z,73.40
2018-10-16T21:15:27.610Z,72.60
2018-10-16T21:17:57.360Z,73.40
2018-10-16T21:20:27.131Z,82.17
2018-10-16T21:22:56.914Z,72.80
2018-10-16T21:25:26.547Z,70.90
2018-10-16T21:27:56.295Z,75.45
2018-10-16T21:30:26.877Z,73.52
2018-10-16T21:32:56.649Z,75.45
2018-10-16T21:35:26.570Z,74.47
2018-10-16T21:37:56.294Z,76.25
2018-10-16T21:40:25.955Z,77.32
2018-10-16T21:42:55.703Z,73.67
2018-10-16T21:45:25.768Z,71.67
2018-10-16T21:47:55.529Z,72.58
2018-10-16T21:50:25.293Z,70.72
2018-10-16T21:52:55.092Z,74.27
2018-10-16T21:55:25.121Z,72.03
2018-10-16T21:57:54.822Z,72.55
2018-10-16T22:00:29.314Z,68.28
2018-10-16T22:02:59.229Z,73.12
2018-10-16T22:05:28.878Z,72.67
2018-10-16T22:07:58.675Z,71.07
2018-10-16T22:10:28.385Z,69.95
2018-10-16T22:12:58.068Z,66.17
2018-10-16T22:15:27.692Z,68.78
2018-10-16T22:17:57.470Z,66.57
2018-10-16T22:20:27.315Z,68.52
2018-10-16T22:22:57.049Z,70.42
2018-10-16T22:25:26.753Z,65.42
2018-10-16T22:27:56.442Z,64.60
2018-10-16T22:30:26.087Z,65.20
2018-10-16T22:32:56.045Z,64.15
2018-10-16T22:35:25.673Z,64.72
2018-10-16T22:37:55.364Z,64.70
2018-10-16T22:40:24.990Z,63.52
2018-10-16T22:42:54.765Z,64.07
2018-10-16T22:45:24.266Z,60.65
2018-10-16T22:47:54.131Z,62.55
2018-10-16T22:50:23.721Z,60.20
2018-10-16T22:52:53.407Z,60.80
2018-10-16T22:55:23.148Z,61.70
2018-10-16T22:57:52.845Z,58.52
2018-10-16T23:00:22.611Z,60.40
2018-10-16T23:02:52.258Z,59.27
2018-10-16T23:05:21.934Z,58.23
2018-10-16T23:07:51.601Z,58.42
2018-10-16T23:10:21.484Z,58.65
2018-10-16T23:12:56.203Z,56.05
2018-10-16T23:15:26.022Z,57.85
2018-10-16T23:17:55.690Z,55.98
2018-10-16T23:20:25.499Z,56.50
2018-10-16T23:22:55.178Z,55.03
2018-10-16T23:25:24.882Z,57.03
2018-10-16T23:27:54.565Z,55.15
2018-10-16T23:30:24.314Z,52.80
2018-10-16T23:32:54.009Z,54.85
2018-10-16T23:35:23.594Z,51.83
2018-10-16T23:37:53.225Z,53.38
2018-10-16T23:40:22.870Z,53.90
2018-10-16T23:42:52.663Z,52.75
2018-10-16T23:45:22.437Z,52.23
2018-10-16T23:47:52.121Z,50.92
2018-10-16T23:50:21.686Z,49.25
2018-10-16T23:52:51.416Z,51.58
2018-10-16T23:55:21.182Z,49.10
2018-10-16T23:57:50.811Z,50.12
